createdAt,value
2019-04-23T12:53:19.651Z,19.41
2019-04-23T12:55:43.861Z,19.37
2019-04-23T12:58:14.530Z,19.50
2019-04-23T13:00:38.963Z,19.63
2019-04-23T13:03:21.559Z,19.58
2019-04-23T13:05:36.058Z,19.69
2019-04-23T13:10:45.782Z,20.57
2019-04-23T13:13:37.456Z,20.62
2019-04-23T13:15:47.957Z,20.33
2019-04-23T13:18:23.684Z,20.15
2019-04-23T13:20:47.957Z,20.41
2019-04-23T13:23:22.209Z,20.21
2019-04-23T13:26:26.313Z,20.40
2019-04-23T13:28:45.419Z,20.41
2019-04-23T13:31:18.154Z,20.10
2019-04-23T13:43:53.136Z,19.64
2019-04-23T13:46:23.964Z,20.38
2019-04-23T13:48:47.082Z,19.80
2019-04-23T13:54:07.493Z,20.06
2019-04-23T13:58:57.760Z,19.84
2019-04-23T14:01:28.857Z,20.06
2019-04-23T14:03:57.111Z,20.17
2019-04-23T14:06:36.483Z,19.84
2019-04-23T14:08:59.776Z,19.98
2019-04-23T14:11:40.483Z,20.80
2019-04-23T14:14:08.370Z,20.30
2019-04-23T14:19:04.966Z,20.17
2019-04-23T14:21:51.669Z,19.48
2019-04-23T14:24:23.556Z,19.85
2019-04-23T14:26:38.362Z,19.94
2019-04-23T14:29:04.255Z,20.30
2019-04-23T14:31:43.405Z,20.20
2019-04-23T14:34:11.554Z,20.31
2019-04-23T14:36:55.529Z,20.39
2019-04-23T14:39:21.574Z,19.85
2019-04-23T14:42:08.351Z,19.75
2019-04-23T14:49:53.955Z,20.14
2019-04-23T14:52:16.482Z,20.48
2019-04-23T14:55:17.413Z,20.04
2019-04-23T14:57:23.224Z,20.48
2019-04-23T14:59:46.821Z,19.79
2019-04-23T15:02:23.029Z,20.19
2019-04-23T15:04:48.162Z,20.18
2019-04-23T15:07:22.834Z,20.25
2019-04-23T15:12:30.462Z,19.95
2019-04-23T15:15:02.577Z,20.44
2019-04-23T15:17:27.075Z,20.26
2019-04-23T15:19:58.098Z,20.59
2019-04-23T15:25:13.702Z,20.07
2019-04-23T15:28:03.427Z,19.96
2019-04-23T15:29:51.106Z,19.65
2019-04-23T15:32:44.540Z,19.75
2019-04-23T15:35:18.441Z,19.88
2019-04-23T15:40:09.614Z,20.39
2019-04-23T15:42:43.122Z,20.03
2019-04-23T15:45:14.024Z,19.86
2019-04-23T15:47:40.041Z,19.53
2019-04-23T15:50:15.726Z,19.84
2019-04-23T15:52:51.517Z,19.98
2019-04-23T15:55:11.902Z,20.07
2019-04-23T15:58:00.883Z,19.66
2019-04-23T16:00:15.977Z,19.90
2019-04-23T16:02:20.196Z,19.83
2019-04-23T16:04:49.360Z,20.06
2019-04-23T16:07:34.030Z,20.03
2019-04-23T16:12:54.733Z,18.94
2019-04-23T16:15:22.025Z,19.32
2019-04-23T16:18:04.114Z,19.72
2019-04-23T16:21:18.153Z,19.62
2019-04-23T16:23:21.048Z,19.88
2019-04-23T16:25:51.823Z,19.88
2019-04-23T16:31:00.817Z,20.03
2019-04-23T16:33:18.642Z,20.31
2019-04-23T16:36:21.560Z,20.21
2019-04-23T16:41:09.865Z,20.39
2019-04-23T16:43:35.385Z,20.40
2019-04-23T16:48:41.629Z,20.59
2019-04-23T16:53:31.439Z,20.43
2019-04-23T16:56:13.104Z,21.19
2019-04-23T17:01:08.631Z,20.95
2019-04-23T17:03:37.930Z,21.05
2019-04-23T17:06:12.144Z,21.44
2019-04-23T17:08:51.961Z,21.28
2019-04-23T17:11:15.187Z,21.53
2019-04-23T17:13:37.646Z,21.53
2019-04-23T17:16:16.769Z,21.20
2019-04-23T17:18:47.165Z,21.39
2019-04-23T17:21:12.159Z,21.56
2019-04-23T17:26:20.818Z,21.85
2019-04-23T17:28:47.550Z,21.98
2019-04-23T17:31:32.787Z,22.07
2019-04-23T17:39:08.527Z,21.98
2019-04-23T17:42:05.717Z,21.95
2019-04-23T17:47:08.695Z,22.07
2019-04-23T17:49:35.057Z,22.15
2019-04-23T17:52:09.109Z,22.33
2019-04-23T17:57:15.592Z,22.62
2019-04-23T18:00:12.029Z,22.40
2019-04-23T18:05:02.385Z,22.93
2019-04-23T18:07:38.364Z,23.08
2019-04-23T18:10:11.644Z,23.10
2019-04-23T18:12:41.785Z,23.23
2019-04-23T18:15:00.375Z,23.59
2019-04-23T18:20:06.698Z,23.90
2019-04-23T18:22:37.169Z,24.07
2019-04-23T18:27:48.274Z,24.28
2019-04-23T18:30:26.160Z,24.02
2019-04-23T18:35:35.746Z,24.26
2019-04-23T18:38:18.683Z,24.14
2019-04-23T18:41:01.328Z,24.07
2019-04-23T18:43:29.729Z,23.93
2019-04-23T18:45:57.351Z,24.25
2019-04-23T18:56:11.297Z,24.80
2019-04-23T18:58:48.572Z,24.74
2019-04-23T19:06:41.308Z,25.32
2019-04-23T19:09:32.513Z,25.79
2019-04-23T19:11:58.129Z,26.06
2019-04-23T19:14:35.230Z,26.31
2019-04-23T19:19:28.594Z,26.57
2019-04-23T19:22:17.414Z,26.61
2019-04-23T19:24:31.548Z,26.80
2019-04-23T19:27:10.587Z,26.76
2019-04-23T19:32:00.565Z,27.24
2019-04-23T19:34:40.785Z,27.45
2019-04-23T19:42:18.071Z,27.28
2019-04-23T19:47:17.588Z,27.07
2019-04-23T20:02:37.183Z,27.57
2019-04-23T20:04:46.110Z,27.75
2019-04-23T20:07:22.674Z,27.61
2019-04-23T20:09:52.037Z,27.93
2019-04-23T20:12:25.059Z,28.04
2019-04-23T20:14:53.456Z,28.09
2019-04-23T20:22:40.145Z,27.95
2019-04-23T20:25:18.570Z,28.23
2019-04-23T20:27:28.770Z,28.36
2019-04-23T20:30:21.245Z,28.70
2019-04-23T20:42:49.754Z,29.06
2019-04-23T20:45:39.607Z,29.53
2019-04-23T20:47:51.437Z,29.49
2019-04-23T20:50:21.855Z,29.20
2019-04-23T20:52:46.661Z,29.24
2019-04-23T20:55:29.235Z,29.54
2019-04-23T20:57:49.888Z,29.72
2019-04-23T21:00:25.702Z,29.73
2019-04-23T21:13:18.753Z,29.79
2019-04-23T21:15:40.662Z,29.90
2019-04-23T21:20:37.047Z,29.76
2019-04-23T21:28:18.240Z,29.64
2019-04-23T21:33:34.013Z,30.15
2019-04-23T21:41:29.223Z,30.15
2019-04-23T21:44:08.590Z,30.34
2019-04-23T21:56:41.583Z,30.99
2019-04-23T22:06:43.274Z,30.62
2019-04-23T22:09:27.966Z,31.00
2019-04-23T22:14:17.055Z,31.09
2019-04-23T22:16:53.924Z,30.88
2019-04-23T22:19:16.740Z,31.11
2019-04-23T22:21:50.919Z,31.36
2019-04-23T22:24:11.962Z,31.30
2019-04-23T22:26:45.529Z,31.40
2019-04-23T22:29:25.749Z,31.36
2019-04-23T22:31:51.958Z,31.48
2019-04-23T22:34:22.037Z,31.64
2019-04-23T22:39:25.344Z,31.76
2019-04-23T22:41:59.017Z,31.50
2019-04-23T22:44:37.315Z,31.56
2019-04-23T22:47:02.497Z,31.89
2019-04-23T22:52:24.912Z,31.85
2019-04-23T22:54:57.128Z,32.22
2019-04-23T22:57:09.199Z,32.12
2019-04-23T23:02:44.641Z,32.33
2019-04-23T23:05:22.483Z,32.60
2019-04-23T23:07:47.074Z,32.70
2019-04-23T23:15:22.973Z,32.73
2019-04-23T23:17:50.616Z,32.79
2019-04-23T23:22:58.866Z,32.69
2019-04-23T23:25:23.834Z,32.48
2019-04-23T23:27:50.111Z,32.48
2019-04-23T23:32:53.215Z,33.11
2019-04-23T23:35:24.321Z,33.30
2019-04-23T23:37:56.550Z,33.60
2019-04-23T23:40:21.602Z,33.69
2019-04-23T23:43:06.036Z,33.81
2019-04-23T23:47:58.870Z,34.15
2019-04-23T23:50:25.490Z,34.36
2019-04-23T23:53:18.454Z,34.06
2019-04-23T23:58:11.065Z,33.94
